Home > Products > Valid Products > MTR

000
SAUS43 KFSD 241453
MTR9V9
METAR K9V9 241452Z AUTO 33015G20KT 14/M01 A2979 RMK AO1 SLP084
T01441011 50009





000
SAUS43 KFSD 241355
MTR9V9
METAR K9V9 241352Z AUTO 33010KT 11/02 A2979 RMK AO1 SLP087 T01060017





000
SAUS43 KFSD 241253
MTR9V9
METAR K9V9 241252Z AUTO 29007KT 06/02 A2979 RMK AO1 SLP085 T00610017





000
SAUS43 KFSD 241153
MTR9V9
METAR K9V9 241152Z AUTO 33007KT 07/02 A2976 RMK AO1 SLP074 T00670022
10122 20067 53011





000
SAUS43 KFSD 241053
MTR9V9
METAR K9V9 241052Z AUTO 33007KT 08/03 A2975 RMK AO1 SLP067 T00830033





000
SAUS43 KFSD 240953
MTR9V9
METAR K9V9 240952Z AUTO 32009KT 08/03 A2974 RMK AO1 SLP064 T00830033





000
SAUS43 KFSD 240853
MTR9V9
METAR K9V9 240852Z AUTO 32014KT 10/03 A2973 RMK AO1 SLP061 T01000033
51006





000
SAUS43 KFSD 240753
MTR9V9
METAR K9V9 240752Z AUTO 32013KT 11/03 A2972 RMK AO1 SLP059 T01060033





000
SAUS43 KFSD 240653
MTR9V9
METAR K9V9 240652Z AUTO 32013KT 12/03 A2973 RMK AO1 SLP060 T01170033





000
SAUS43 KFSD 240553
MTR9V9
METAR K9V9 240552Z AUTO 35011KT 12/04 A2971 RMK AO1 SLP054 T01220039
10233 20122 402560111 50021





000
SAUS43 KFSD 240453
MTR9V9
METAR K9V9 240452Z AUTO 34016G23KT 13/05 A2971 RMK AO1 SLP057
T01280050





000
SAUS43 KFSD 240353
MTR9V9
METAR K9V9 240352Z AUTO 35016G21KT 13/06 A2967 RMK AO1 PK WND
01028/0316 SLP043 T01330061





000
SAUS43 KFSD 240253
MTR9V9
METAR K9V9 240252Z AUTO 35017G25KT 15/06 A2964 RMK AO1 PK WND
36029/0206 SLP034 T01500056 53041





000
SAUS43 KFSD 240153
MTR9V9
METAR K9V9 240152Z AUTO 34020G31KT 16/06 A2956 RMK AO1 PK WND
32035/0056 SLP007 T01560061





000
SAUS43 KFSD 240053
MTR9V9
METAR K9V9 240052Z AUTO 34006KT 21/08 A2953 RMK AO1 SLP994 T02110078





000
SAUS43 KFSD 232353
MTR9V9
METAR K9V9 232352Z AUTO 32007KT 23/08 A2952 RMK AO1 SLP989 T02280078
10256 20217 53006





000
SAUS43 KFSD 232253
MTR9V9
METAR K9V9 232252Z AUTO 28007KT 24/07 A2950 RMK AO1 SLP982 T02390067





000
SAUS43 KFSD 232153
MTR9V9
METAR K9V9 232152Z AUTO 00000KT 25/07 A2949 RMK AO1 SLP976 T02500067





000
SAUS43 KFSD 232053
MTR9V9
METAR K9V9 232052Z AUTO 24/07 A2950 RMK AO1 SLP980 T02440067 56009





000
SAUS43 KFSD 231953
MTR9V9
METAR K9V9 231952Z AUTO 18014G20KT 23/07 A2950 RMK AO1 PK WND
20027/1901 SLP981 T02280067





000
SAUS43 KFSD 231853
MTR9V9
METAR K9V9 231852Z AUTO 17020G27KT 23/06 A2951 RMK AO1 PK WND
16030/1754 SLP982 T02330061





000
SAUS43 KFSD 231753
MTR9V9
METAR K9V9 231752Z AUTO 18018G31KT 22/06 A2953 RMK AO1 PK WND
17034/1719 SLP990 T02170056 10217 20111 58020





000
SAUS43 KFSD 231653
MTR9V9
METAR K9V9 231652Z AUTO 16024G31KT 18/05 A2954 RMK AO1 PK WND
14035/1621 SLP998 T01830050





000
SAUS43 KFSD 231553
MTR9V9
METAR K9V9 231552Z AUTO 16024G32KT 16/04 A2957 RMK AO1 PK WND
16034/1528 SLP006 T01610039





000
SAUS43 KFSD 231453
MTR9V9
METAR K9V9 231452Z AUTO 15026G35KT 14/03 A2959 RMK AO1 PK WND
15038/1421 SLP013 T01390028 56008





000
SAUS43 KFSD 231353
MTR9V9
METAR K9V9 231352Z AUTO 15023G36KT 13/02 A2959 RMK AO1 PK WND
15036/1350 SLP015 T01280017





000
SAUS43 KFSD 231253
MTR9V9
METAR K9V9 231252Z AUTO 14028G34KT 12/01 A2960 RMK AO1 PK WND
14037/1219 SLP018 T01170011





000
SAUS43 KFSD 231153
MTR9V9
METAR K9V9 231152Z AUTO 15026G37KT 12/01 A2961 RMK AO1 PK WND
15037/1147 SLP021 T01170011 10150 20117 56021





000
SAUS43 KFSD 231053
MTR9V9
METAR K9V9 231052Z AUTO 14024G33KT 12/01 A2963 RMK AO1 PK WND
14033/1046 SLP026 T01220011





000
SAUS43 KFSD 230953
MTR9V9
METAR K9V9 230952Z AUTO 14023G34KT 13/01 A2964 RMK AO1 PK WND
14034/0950 SLP032 T01330006





000
SAUS43 KFSD 230853
MTR9V9
METAR K9V9 230852Z AUTO 15022G30KT 13/01 A2968 RMK AO1 PK WND
15031/0800 SLP042 T01330011 58026





000
SAUS43 KFSD 230753
MTR9V9
METAR K9V9 230752Z AUTO 16028G34KT 14/01 A2971 RMK AO1 PK WND
16034/0749 SLP054 T01390006





000
SAUS43 KFSD 230653
MTR9V9
METAR K9V9 230652Z AUTO 16023G32KT 14/01 A2975 RMK AO1 PK WND
16032/0638 SLP068 T01440011





000
SAUS43 KFSD 230553
MTR9V9
METAR K9V9 230552Z AUTO 15021G31KT 14/01 A2976 RMK AO1 PK WND
15033/0539 SLP071 T01440006 10206 20144 402170028 58010





000
SAUS43 KFSD 230453
MTR9V9
METAR K9V9 230452Z AUTO 15022G30KT 14/01 A2977 RMK AO1 PK WND
14034/0357 SLP075 T01440006





000
SAUS43 KFSD 230353
MTR9V9
METAR K9V9 230352Z AUTO 14025G34KT 16/00 A2978 RMK AO1 PK WND
15034/0350 SLP080 T01560000





000
SAUS43 KFSD 230253
MTR9V9
METAR K9V9 230252Z AUTO 14020G26KT 17/01 A2979 RMK AO1 PK WND
14027/0214 SLP083 T01670006 55000





000
SAUS43 KFSD 230153
MTR9V9
METAR K9V9 230152Z AUTO 13019G25KT 18/01 A2978 RMK AO1 PK WND
14028/0136 SLP082 T01830006





000
SAUS43 KFSD 230053
MTR9V9
METAR K9V9 230052Z AUTO 14018KT 19/01 A2977 RMK AO1 PK WND
14032/2359 SLP081 T01940006





000
SAUS43 KFSD 222353
MTR9V9
METAR K9V9 222352Z AUTO 14023G29KT 21/00 A2979 RMK AO1 PK WND
14035/2254 SLP088 T02060000 10217 20172 56025





000
SAUS43 KFSD 222253
MTR9V9
METAR K9V9 222252Z AUTO 14024G30KT 22/00 A2981 RMK AO1 PK WND
15032/2206 SLP093 T02170000





000
SAUS43 KFSD 222153
MTR9V9
METAR K9V9 222152Z AUTO 15021G30KT 21/M01 A2984 RMK AO1 PK WND
16032/2132 SLP104 T02061006





000
SAUS43 KFSD 222053
MTR9V9
METAR K9V9 222052Z AUTO 16020G31KT 22/M01 A2987 RMK AO1 PK WND
16033/1958 SLP112 T02171006 56029





000
SAUS43 KFSD 221953
MTR9V9
METAR K9V9 221952Z AUTO 18020G30KT 22/M01 A2990 RMK AO1 PK WND
17033/1909 SLP123 T02171006





000
SAUS43 KFSD 221853
MTR9V9
METAR K9V9 221852Z AUTO 16020G32KT 21/M01 A2992 RMK AO1 PK WND
15034/1826 SLP131 T02061006





000
SAUS43 KFSD 221753
MTR9V9
METAR K9V9 221752Z AUTO 16020G31KT 17/M01 A2996 RMK AO1 PK WND
15032/1728 SLP144 T01721011 10194 20028 58033





000
SAUS43 KFSD 221653
MTR9V9
METAR K9V9 221652Z AUTO 15020G28KT 17/M02 A3001 RMK AO1 PK WND
14028/1650 SLP162 T01721022





000
SAUS43 KFSD 221553
MTR9V9
METAR K9V9 221552Z AUTO 16020G25KT 16/M01 A3004 RMK AO1 SLP174
T01611006





000
SAUS43 KFSD 221453
MTR9V9
METAR K9V9 221452Z AUTO 16015KT 14/02 A3006 RMK AO1 SLP180 T01390017
58011





000
SAUS43 KFSD 221353
MTR9V9
METAR K9V9 221352Z AUTO 14007KT 09/02 A3009 RMK AO1 SLP192 T00940022





000
SAUS43 KFSD 221253
MTR9V9
METAR K9V9 221252Z AUTO 12009KT 06/01 A3009 RMK AO1 SLP192 T00560011





000
SAUS43 KFSD 221153
MTR9V9
METAR K9V9 221152Z AUTO 13007KT 03/M01 A3009 RMK AO1 SLP193
T00281006 10078 20028 58009





000
SAUS43 KFSD 221053
MTR9V9
METAR K9V9 221052Z AUTO 13005KT 04/M01 A3011 RMK AO1 SLP196
T00441006





000
SAUS43 KFSD 220953
MTR9V9
METAR K9V9 220952Z AUTO 16007KT 04/M01 A3011 RMK AO1 SLP197
T00391006





000
SAUS43 KFSD 220853
MTR9V9
METAR K9V9 220852Z AUTO 14007KT 05/00 A3012 RMK AO1 SLP200 T00500000
58008





000
SAUS43 KFSD 220753
MTR9V9
METAR K9V9 220752Z AUTO 15006KT 04/M01 A3014 RMK AO1 SLP206
T00441011





000
SAUS43 KFSD 220653
MTR9V9
METAR K9V9 220652Z AUTO 14005KT 06/00 A3014 RMK AO1 SLP208 T00610000





000
SAUS43 KFSD 220553
MTR9V9
METAR K9V9 220552Z AUTO 15004KT 08/00 A3015 RMK AO1 SLP207 T00780000
10189 20061 402170061 55003





000
SAUS43 KFSD 220453
MTR9V9
METAR K9V9 220452Z AUTO 13005KT 07/01 A3014 RMK AO1 SLP207 T00720006





000
SAUS43 KFSD 220353
MTR9V9
METAR K9V9 220352Z AUTO 11004KT 09/M01 A3015 RMK AO1 SLP208
T00941006





000
SAUS43 KFSD 220253
MTR9V9
METAR K9V9 220252Z AUTO 09005KT 11/M01 A3015 RMK AO1 SLP211
T01111006 53008





000
SAUS43 KFSD 220154
MTR9V9
METAR K9V9 220152Z AUTO 05007KT 12/M01 A3014 RMK AO1 SLP207
T01221006





000
SAUS43 KFSD 220053
MTR9V9
METAR K9V9 220052Z AUTO 04009KT 17/M01 A3013 RMK AO1 SLP204
T01671011





000
SAUS43 KFSD 212353
MTR9V9
METAR K9V9 212352Z AUTO 03016G21KT 19/M02 A3013 RMK AO1 SLP204
T01891022 10217 20189 58006





000
SAUS43 KFSD 212253
MTR9V9
METAR K9V9 212252Z AUTO 36011G21KT 21/M03 A3014 RMK AO1 PK WND
01026/2237 SLP204 T02061028





000
SAUS43 KFSD 212153
MTR9V9
METAR K9V9 212152Z AUTO 36018G24KT 21/M03 A3014 RMK AO1 SLP202
T02061028





000
SAUS43 KFSD 212053
MTR9V9
METAR K9V9 212052Z AUTO 34016G22KT 21/M02 A3015 RMK AO1 PK WND
36027/1958 SLP205 T02111022 58009





000
SAUS43 KFSD 211953
MTR9V9
METAR K9V9 211952Z AUTO 34015G23KT 21/M02 A3016 RMK AO1 PK WND
34026/1939 SLP209 T02061017





000
SAUS43 KFSD 211853
MTR9V9
METAR K9V9 211852Z AUTO 35016G25KT 21/M01 A3017 RMK AO1 PK WND
35027/1835 SLP209 T02061011





000
SAUS43 KFSD 211753
MTR9V9
METAR K9V9 211752Z AUTO 36015G27KT 20/M01 A3018 RMK AO1 PK WND
36027/1746 SLP213 T02001006 10200 20067 50005





000
SAUS43 KFSD 211653
MTR9V9
METAR K9V9 211652Z AUTO 35012G20KT 18/00 A3019 RMK AO1 SLP216
T01830000





000
SAUS43 KFSD 211553
MTR9V9
METAR K9V9 211552Z AUTO 01011KT 18/01 A3017 RMK AO1 SLP212 T01780006





    US Dept of Commerce
    National Oceanic and Atmospheric Administration
    National Weather Service
    1325 East West Highway
    Silver Spring, MD 20910
    Page Author: NWS Internet Services Team
Disclaimer
Information Quality
Credits
Glossary
Privacy Policy
Freedom of Information Act (FOIA)
About Us
Career Opportunities